^^
Station Historical Data
Daily Summary for October 27, 2017 Units:  Both    English   Metric
« Previous Day
Next Day »
Daily Weekly Monthly Yearly Custom
  High: Low: Average:
Temperature: TemperatureF °F /  -17.8 °C 58.5 °F /  14.7 °C 73.8 °F /  23.2 °C
Dew Point: DewpointF °F /  -17.8 °C 8.4 °F /  -13.1 °C 22.5 °F /  -5.3 °C
Humidity: Humidity% 5% 16%
Wind Speed: WindSpeedMPHmph /  0km/h - 2.3mph /  3.7km/h
Wind Gust: WindSpeedGustMPHmph /  0km/h - -
Wind- - South
Pressure: PressureIn in /  0 hPa 30.04 in /  1017.2 hPa -
Precipitation: 0.00 in /  0 mm    
Historical Graphs
 
 
Tabular Data for October 27, 2017
Time Temperature Dew Point Pressure Wind Wind Speed Wind Gust Humidity Rainfall Rate (Hourly) solar Conditions
TemperatureF °F /  -17.8 °C DewpointF °F /  -17.8 °C PressureInin /  0hPa Calm     Humidity% HourlyPrecipInin /  0mm SolarRadiationWatts/m^2 W/m2 Conditions
00:03 61.5 °F /  16.4 °C 18.9 °F /  -7.3 °C 30.15in /  1020.9hPa Calm     19% 0.00in /  0mm 0.0 W/m2
00:09 61.3 °F /  16.3 °C 18.7 °F /  -7.4 °C 30.15in /  1020.9hPa Calm     19% 0.00in /  0mm 0.0 W/m2
00:14 61.2 °F /  16.2 °C 18.5 °F /  -7.5 °C 30.15in /  1020.9hPa Calm     19% 0.00in /  0mm 0.0 W/m2
00:19 61.0 °F /  16.1 °C 19.6 °F /  -6.9 °C 30.15in /  1020.9hPa Calm     20% 0.00in /  0mm 0.0 W/m2
00:24 61.0 °F /  16.1 °C 18.5 °F /  -7.5 °C 30.14in /  1020.5hPa Calm     19% 0.00in /  0mm 0.0 W/m2
00:29 60.6 °F /  15.9 °C 18.1 °F /  -7.7 °C 30.14in /  1020.5hPa Calm     19% 0.00in /  0mm 0.0 W/m2
00:34 60.6 °F /  15.9 °C 18.1 °F /  -7.7 °C 30.14in /  1020.5hPa Calm     19% 0.00in /  0mm 0.0 W/m2
00:39 60.4 °F /  15.8 °C 19.2 °F /  -7.1 °C 30.14in /  1020.5hPa Calm     20% 0.00in /  0mm 0.0 W/m2
00:44 60.3 °F /  15.7 °C 19.0 °F /  -7.2 °C 30.14in /  1020.5hPa Calm     20% 0.00in /  0mm 0.0 W/m2
00:49 60.1 °F /  15.6 °C 18.9 °F /  -7.3 °C 30.13in /  1020.2hPa Calm     20% 0.00in /  0mm 0.0 W/m2
00:54 60.1 °F /  15.6 °C 18.9 °F /  -7.3 °C 30.13in /  1020.2hPa Calm     20% 0.00in /  0mm 0.0 W/m2
01:00 59.9 °F /  15.5 °C 18.7 °F /  -7.4 °C 30.13in /  1020.2hPa Calm   1.0mph /  1.6km/h 20% 0.00in /  0mm 0.0 W/m2
01:05 59.7 °F /  15.4 °C 18.5 °F /  -7.5 °C 30.12in /  1019.9hPa Calm     20% 0.00in /  0mm 0.0 W/m2
01:10 59.7 °F /  15.4 °C 18.5 °F /  -7.5 °C 30.12in /  1019.9hPa Calm     20% 0.00in /  0mm 0.0 W/m2
01:15 59.7 °F /  15.4 °C 18.5 °F /  -7.5 °C 30.12in /  1019.9hPa Calm     20% 0.00in /  0mm 0.0 W/m2
01:20 59.7 °F /  15.4 °C 18.5 °F /  -7.5 °C 30.12in /  1019.9hPa Calm     20% 0.00in /  0mm 0.0 W/m2
01:25 59.5 °F /  15.3 °C 18.5 °F /  -7.5 °C 30.12in /  1019.9hPa Calm     20% 0.00in /  0mm 0.0 W/m2
01:30 59.5 °F /  15.3 °C 18.5 °F /  -7.5 °C 30.12in /  1019.9hPa Calm     20% 0.00in /  0mm 0.0 W/m2
01:35 59.4 °F /  15.2 °C 18.3 °F /  -7.6 °C 30.11in /  1019.5hPa Calm     20% 0.00in /  0mm 0.0 W/m2
01:41 59.4 °F /  15.2 °C 19.4 °F /  -7 °C 30.11in /  1019.5hPa Calm     21% 0.00in /  0mm 0.0 W/m2
01:46 59.4 °F /  15.2 °C 18.3 °F /  -7.6 °C 30.12in /  1019.9hPa Calm     20% 0.00in /  0mm 0.0 W/m2
01:51 59.4 °F /  15.2 °C 19.4 °F /  -7 °C 30.11in /  1019.5hPa Calm     21% 0.00in /  0mm 0.0 W/m2
01:56 59.4 °F /  15.2 °C 19.4 °F /  -7 °C 30.11in /  1019.5hPa Calm     21% 0.00in /  0mm 0.0 W/m2
02:01 59.2 °F /  15.1 °C 19.2 °F /  -7.1 °C 30.11in /  1019.5hPa Calm     21% 0.00in /  0mm 0.0 W/m2
02:06 59.2 °F /  15.1 °C 18.1 °F /  -7.7 °C 30.11in /  1019.5hPa Calm     20% 0.00in /  0mm 0.0 W/m2
02:11 58.8 °F /  14.9 °C 15.4 °F /  -9.2 °C 30.11in /  1019.5hPa Calm     18% 0.00in /  0mm 0.0 W/m2
02:16 58.8 °F /  14.9 °C 16.7 °F /  -8.5 °C 30.11in /  1019.5hPa Calm     19% 0.00in /  0mm 0.0 W/m2
02:22 58.6 °F /  14.8 °C 16.5 °F /  -8.6 °C 30.11in /  1019.5hPa Calm     19% 0.00in /  0mm 0.0 W/m2
02:27 58.5 °F /  14.7 °C 15.1 °F /  -9.4 °C 30.11in /  1019.5hPa Calm     18% 0.00in /  0mm 0.0 W/m2
02:32 58.5 °F /  14.7 °C 15.1 °F /  -9.4 °C 30.11in /  1019.5hPa Calm     18% 0.00in /  0mm 0.0 W/m2
02:37 58.5 °F /  14.7 °C 16.3 °F /  -8.7 °C 30.11in /  1019.5hPa Calm     19% 0.00in /  0mm 0.0 W/m2
02:42 58.5 °F /  14.7 °C 15.1 °F /  -9.4 °C 30.11in /  1019.5hPa Calm   2.0mph /  3.2km/h 18% 0.00in /  0mm 0.0 W/m2
02:47 58.5 °F /  14.7 °C 13.8 °F /  -10.1 °C 30.11in /  1019.5hPa Calm   1.0mph /  1.6km/h 17% 0.00in /  0mm 0.0 W/m2
02:52 58.8 °F /  14.9 °C 12.7 °F /  -10.7 °C 30.11in /  1019.5hPa Calm     16% 0.00in /  0mm 0.0 W/m2
02:57 59.2 °F /  15.1 °C 12.9 °F /  -10.6 °C 30.11in /  1019.5hPa Calm   1.0mph /  1.6km/h 16% 0.00in /  0mm 0.0 W/m2
03:03 59.5 °F /  15.3 °C 11.8 °F /  -11.2 °C 30.11in /  1019.5hPa Calm   1.0mph /  1.6km/h 15% 0.00in /  0mm 0.0 W/m2
03:08 59.9 °F /  15.5 °C 12.2 °F /  -11 °C 30.11in /  1019.5hPa Calm     15% 0.00in /  0mm 0.0 W/m2
03:13 60.3 °F /  15.7 °C 12.4 °F /  -10.9 °C 30.11in /  1019.5hPa Calm     15% 0.00in /  0mm 0.0 W/m2
03:18 60.4 °F /  15.8 °C 12.6 °F /  -10.8 °C 30.11in /  1019.5hPa Calm     15% 0.00in /  0mm 0.0 W/m2
03:23 60.8 °F /  16 °C 12.9 °F /  -10.6 °C 30.11in /  1019.5hPa Calm   1.0mph /  1.6km/h 15% 0.00in /  0mm 0.0 W/m2
03:28 61.5 °F /  16.4 °C 13.5 °F /  -10.3 °C 30.11in /  1019.5hPa Calm   5.0mph /  8km/h 15% 0.00in /  0mm 0.0 W/m2
03:33 62.2 °F /  16.8 °C 14.0 °F /  -10 °C 30.11in /  1019.5hPa SSE 0.9mph /  1.4km/h 2.0mph /  3.2km/h 15% 0.00in /  0mm 0.0 W/m2
03:38 62.8 °F /  17.1 °C 12.9 °F /  -10.6 °C 30.11in /  1019.5hPa South 0.9mph /  1.4km/h 4.0mph /  6.4km/h 14% 0.00in /  0mm 0.0 W/m2
03:43 63.3 °F /  17.4 °C 11.7 °F /  -11.3 °C 30.11in /  1019.5hPa Calm     13% 0.00in /  0mm 0.0 W/m2
03:48 63.3 °F /  17.4 °C 13.3 °F /  -10.4 °C 30.11in /  1019.5hPa ENE 0.9mph /  1.4km/h 2.0mph /  3.2km/h 14% 0.00in /  0mm 0.0 W/m2
03:54 63.0 °F /  17.2 °C 12.9 °F /  -10.6 °C 30.11in /  1019.5hPa East 2.0mph /  3.2km/h 2.0mph /  3.2km/h 14% 0.00in /  0mm 0.0 W/m2
03:59 62.4 °F /  16.9 °C 14.2 °F /  -9.9 °C 30.11in /  1019.5hPa Calm   2.0mph /  3.2km/h 15% 0.00in /  0mm 0.0 W/m2
04:04 62.1 °F /  16.7 °C 13.8 °F /  -10.1 °C 30.11in /  1019.5hPa Calm   2.0mph /  3.2km/h 15% 0.00in /  0mm 0.0 W/m2
04:09 61.5 °F /  16.4 °C 13.5 °F /  -10.3 °C 30.11in /  1019.5hPa Calm     15% 0.00in /  0mm 0.0 W/m2
04:14 61.2 °F /  16.2 °C 13.1 °F /  -10.5 °C 30.11in /  1019.5hPa Calm     15% 0.00in /  0mm 0.0 W/m2
04:19 60.6 °F /  15.9 °C 14.2 °F /  -9.9 °C 30.11in /  1019.5hPa Calm     16% 0.00in /  0mm 0.0 W/m2
04:24 60.4 °F /  15.8 °C 14.0 °F /  -10 °C 30.11in /  1019.5hPa Calm     16% 0.00in /  0mm 0.0 W/m2
04:30 60.3 °F /  15.7 °C 15.3 °F /  -9.3 °C 30.11in /  1019.5hPa Calm   7.0mph /  11.3km/h 17% 0.00in /  0mm 0.0 W/m2
04:35 61.0 °F /  16.1 °C 18.5 °F /  -7.5 °C 30.11in /  1019.5hPa Calm   9.0mph /  14.5km/h 19% 0.00in /  0mm 0.0 W/m2
04:40 62.1 °F /  16.7 °C 20.5 °F /  -6.4 °C 30.12in /  1019.9hPa SE 4.0mph /  6.4km/h 7.0mph /  11.3km/h 20% 0.00in /  0mm 0.0 W/m2
04:45 62.6 °F /  17 °C 22.1 °F /  -5.5 °C 30.11in /  1019.5hPa SE 6.0mph /  9.7km/h 7.0mph /  11.3km/h 21% 0.00in /  0mm 0.0 W/m2
04:50 63.0 °F /  17.2 °C 22.5 °F /  -5.3 °C 30.12in /  1019.9hPa Calm   5.0mph /  8km/h 21% 0.00in /  0mm 0.0 W/m2
04:55 63.1 °F /  17.3 °C 22.6 °F /  -5.2 °C 30.12in /  1019.9hPa South 0.9mph /  1.4km/h 4.0mph /  6.4km/h 21% 0.00in /  0mm 0.0 W/m2
05:00 63.0 °F /  17.2 °C 22.5 °F /  -5.3 °C 30.12in /  1019.9hPa Calm   6.0mph /  9.7km/h 21% 0.00in /  0mm 0.0 W/m2
05:05 63.0 °F /  17.2 °C 22.5 °F /  -5.3 °C 30.12in /  1019.9hPa Calm   3.0mph /  4.8km/h 21% 0.00in /  0mm 0.0 W/m2
05:11 62.8 °F /  17.1 °C 23.4 °F /  -4.8 °C 30.12in /  1019.9hPa SSW 0.9mph /  1.4km/h 6.0mph /  9.7km/h 22% 0.00in /  0mm 0.0 W/m2
05:16 62.8 °F /  17.1 °C 23.4 °F /  -4.8 °C 30.12in /  1019.9hPa Calm   2.0mph /  3.2km/h 22% 0.00in /  0mm 0.0 W/m2
05:22 62.6 °F /  17 °C 23.2 °F /  -4.9 °C 30.12in /  1019.9hPa South 2.0mph /  3.2km/h 3.0mph /  4.8km/h 22% 0.00in /  0mm 0.0 W/m2
05:27 62.4 °F /  16.9 °C 23.0 °F /  -5 °C 30.13in /  1020.2hPa Calm   8.0mph /  12.9km/h 22% 0.00in /  0mm 0.0 W/m2
05:32 62.2 °F /  16.8 °C 23.9 °F /  -4.5 °C 30.13in /  1020.2hPa SSE 2.0mph /  3.2km/h 7.0mph /  11.3km/h 23% 0.00in /  0mm 0.0 W/m2
05:37 62.1 °F /  16.7 °C 23.9 °F /  -4.5 °C 30.13in /  1020.2hPa ESE 2.0mph /  3.2km/h 3.0mph /  4.8km/h 23% 0.00in /  0mm 0.0 W/m2
05:42 61.9 °F /  16.6 °C 23.7 °F /  -4.6 °C 30.13in /  1020.2hPa Calm     23% 0.00in /  0mm 0.0 W/m2
05:47 61.5 °F /  16.4 °C 23.4 °F /  -4.8 °C 30.14in /  1020.5hPa Calm     23% 0.00in /  0mm 0.0 W/m2
05:53 61.2 °F /  16.2 °C 24.1 °F /  -4.4 °C 30.14in /  1020.5hPa Calm     24% 0.00in /  0mm 0.0 W/m2
05:58 60.6 °F /  15.9 °C 23.5 °F /  -4.7 °C 30.14in /  1020.5hPa Calm   1.0mph /  1.6km/h 24% 0.00in /  0mm 0.0 W/m2
06:03 60.3 °F /  15.7 °C 23.4 °F /  -4.8 °C 30.14in /  1020.5hPa Calm   1.0mph /  1.6km/h 24% 0.00in /  0mm 0.0 W/m2
06:08 59.7 °F /  15.4 °C 23.9 °F /  -4.5 °C 30.14in /  1020.5hPa Calm     25% 0.00in /  0mm 0.0 W/m2
06:13 59.5 °F /  15.3 °C 23.7 °F /  -4.6 °C 30.14in /  1020.5hPa Calm     25% 0.00in /  0mm 0.0 W/m2
06:18 59.2 °F /  15.1 °C 22.5 °F /  -5.3 °C 30.14in /  1020.5hPa Calm   1.0mph /  1.6km/h 24% 0.00in /  0mm 7.0 W/m2
06:23 58.8 °F /  14.9 °C 23.0 °F /  -5 °C 30.14in /  1020.5hPa Calm     25% 0.00in /  0mm 9.0 W/m2
06:28 58.5 °F /  14.7 °C 22.8 °F /  -5.1 °C 30.14in /  1020.5hPa Calm   1.0mph /  1.6km/h 25% 0.00in /  0mm 12.0 W/m2
06:33 58.5 °F /  14.7 °C 23.7 °F /  -4.6 °C 30.15in /  1020.9hPa Calm   2.0mph /  3.2km/h 26% 0.00in /  0mm 14.0 W/m2
06:38 58.5 °F /  14.7 °C 23.7 °F /  -4.6 °C 30.15in /  1020.9hPa Calm   4.0mph /  6.4km/h 26% 0.00in /  0mm 18.0 W/m2
06:43 58.5 °F /  14.7 °C 24.6 °F /  -4.1 °C 30.15in /  1020.9hPa Calm   1.0mph /  1.6km/h 27% 0.00in /  0mm 19.0 W/m2
06:49 58.6 °F /  14.8 °C 24.8 °F /  -4 °C 30.15in /  1020.9hPa Calm   4.0mph /  6.4km/h 27% 0.00in /  0mm 21.0 W/m2
06:54 58.8 °F /  14.9 °C 25.0 °F /  -3.9 °C 30.15in /  1020.9hPa SE 2.9mph /  4.7km/h 5.0mph /  8km/h 27% 0.00in /  0mm 23.0 W/m2
06:59 59.4 °F /  15.2 °C 26.2 °F /  -3.2 °C 30.16in /  1021.2hPa SE 4.0mph /  6.4km/h 10.0mph /  16.1km/h 28% 0.00in /  0mm 26.0 W/m2
07:04 60.4 °F /  15.8 °C 28.9 °F /  -1.7 °C 30.16in /  1021.2hPa ESE 0.9mph /  1.4km/h 4.0mph /  6.4km/h 30% 0.00in /  0mm 28.0 W/m2
07:09 61.7 °F /  16.5 °C 32.4 °F /  0.2 °C 30.16in /  1021.2hPa ESE 6.0mph /  9.7km/h 11.0mph /  17.7km/h 33% 0.00in /  0mm 28.0 W/m2
07:14 63.1 °F /  17.3 °C 33.6 °F /  0.9 °C 30.16in /  1021.2hPa ESE 2.9mph /  4.7km/h 8.0mph /  12.9km/h 33% 0.00in /  0mm 30.0 W/m2
07:19 64.0 °F /  17.8 °C 33.6 °F /  0.9 °C 30.16in /  1021.2hPa Calm   4.0mph /  6.4km/h 32% 0.00in /  0mm 37.0 W/m2
07:24 64.6 °F /  18.1 °C 33.3 °F /  0.7 °C 30.16in /  1021.2hPa SE 0.9mph /  1.4km/h 9.0mph /  14.5km/h 31% 0.00in /  0mm 33.0 W/m2
07:30 64.9 °F /  18.3 °C 33.6 °F /  0.9 °C 30.16in /  1021.2hPa SSE 2.9mph /  4.7km/h 6.0mph /  9.7km/h 31% 0.00in /  0mm 35.0 W/m2
07:35 65.5 °F /  18.6 °C 33.3 °F /  0.7 °C 30.16in /  1021.2hPa East 6.0mph /  9.7km/h 9.0mph /  14.5km/h 30% 0.00in /  0mm 35.0 W/m2
07:40 65.7 °F /  18.7 °C 32.5 °F /  0.3 °C 30.15in /  1020.9hPa ESE 2.0mph /  3.2km/h 8.0mph /  12.9km/h 29% 0.00in /  0mm 37.0 W/m2
07:45 66.0 °F /  18.9 °C 32.9 °F /  0.5 °C 30.16in /  1021.2hPa ESE 4.0mph /  6.4km/h 11.0mph /  17.7km/h 29% 0.00in /  0mm 42.0 W/m2
07:50 66.4 °F /  19.1 °C 34.0 °F /  1.1 °C 30.16in /  1021.2hPa SSE 2.0mph /  3.2km/h 7.0mph /  11.3km/h 30% 0.00in /  0mm 40.0 W/m2
07:55 66.6 °F /  19.2 °C 34.2 °F /  1.2 °C 30.15in /  1020.9hPa ESE 0.9mph /  1.4km/h 9.0mph /  14.5km/h 30% 0.00in /  0mm 40.0 W/m2
08:00 66.7 °F /  19.3 °C 35.1 °F /  1.7 °C 30.15in /  1020.9hPa SE 4.0mph /  6.4km/h 5.0mph /  8km/h 31% 0.00in /  0mm 42.0 W/m2
08:05 67.3 °F /  19.6 °C 35.6 °F /  2 °C 30.15in /  1020.9hPa East 2.0mph /  3.2km/h 9.0mph /  14.5km/h 31% 0.00in /  0mm 47.0 W/m2
08:10 67.5 °F /  19.7 °C 35.8 °F /  2.1 °C 30.15in /  1020.9hPa East 0.9mph /  1.4km/h 12.0mph /  19.3km/h 31% 0.00in /  0mm 58.0 W/m2
08:15 67.6 °F /  19.8 °C 36.0 °F /  2.2 °C 30.15in /  1020.9hPa ESE 2.9mph /  4.7km/h 11.0mph /  17.7km/h 31% 0.00in /  0mm 443.0 W/m2
08:20 67.8 °F /  19.9 °C 36.9 °F /  2.7 °C 30.15in /  1020.9hPa ENE 6.0mph /  9.7km/h 12.0mph /  19.3km/h 32% 0.00in /  0mm 462.0 W/m2
08:26 68.4 °F /  20.2 °C 36.5 °F /  2.5 °C 30.15in /  1020.9hPa ENE 2.0mph /  3.2km/h 14.0mph /  22.5km/h 31% 0.00in /  0mm 489.0 W/m2
08:31 68.7 °F /  20.4 °C 36.9 °F /  2.7 °C 30.15in /  1020.9hPa NE 2.9mph /  4.7km/h 14.0mph /  22.5km/h 31% 0.00in /  0mm 506.0 W/m2
08:36 69.4 °F /  20.8 °C 36.7 °F /  2.6 °C 30.15in /  1020.9hPa NNE 0.9mph /  1.4km/h 11.0mph /  17.7km/h 30% 0.00in /  0mm 524.0 W/m2
08:41 70.0 °F /  21.1 °C 37.0 °F /  2.8 °C 30.15in /  1020.9hPa East 4.9mph /  7.9km/h 7.0mph /  11.3km/h 30% 0.00in /  0mm 541.0 W/m2
08:46 70.3 °F /  21.3 °C 36.5 °F /  2.5 °C 30.15in /  1020.9hPa East 2.0mph /  3.2km/h 14.0mph /  22.5km/h 29% 0.00in /  0mm 563.0 W/m2
08:51 70.7 °F /  21.5 °C 36.9 °F /  2.7 °C 30.15in /  1020.9hPa ESE 6.0mph /  9.7km/h 9.0mph /  14.5km/h 29% 0.00in /  0mm 573.0 W/m2
08:56 71.2 °F /  21.8 °C 37.4 °F /  3 °C 30.15in /  1020.9hPa NE 0.9mph /  1.4km/h 7.0mph /  11.3km/h 29% 0.00in /  0mm 601.0 W/m2
09:02 71.8 °F /  22.1 °C 36.9 °F /  2.7 °C 30.15in /  1020.9hPa WNW 2.9mph /  4.7km/h 12.0mph /  19.3km/h 28% 0.00in /  0mm 619.0 W/m2
09:08 72.3 °F /  22.4 °C 37.4 °F /  3 °C 30.15in /  1020.9hPa NE 6.9mph /  11.1km/h 10.0mph /  16.1km/h 28% 0.00in /  0mm 642.0 W/m2
09:13 72.7 °F /  22.6 °C 37.8 °F /  3.2 °C 30.15in /  1020.9hPa South 0.9mph /  1.4km/h 10.0mph /  16.1km/h 28% 0.00in /  0mm 661.0 W/m2
09:18 73.0 °F /  22.8 °C 37.0 °F /  2.8 °C 30.15in /  1020.9hPa ESE 6.9mph /  11.1km/h 10.0mph /  16.1km/h 27% 0.00in /  0mm 677.0 W/m2
09:23 73.2 °F /  22.9 °C 37.2 °F /  2.9 °C 30.15in /  1020.9hPa SE 6.0mph /  9.7km/h 8.0mph /  12.9km/h 27% 0.00in /  0mm 693.0 W/m2
09:28 73.8 °F /  23.2 °C 37.8 °F /  3.2 °C 30.15in /  1020.9hPa East 2.0mph /  3.2km/h 5.0mph /  8km/h 27% 0.00in /  0mm 708.0 W/m2
09:33 74.5 °F /  23.6 °C 37.4 °F /  3 °C 30.15in /  1020.9hPa East 4.9mph /  7.9km/h 11.0mph /  17.7km/h 26% 0.00in /  0mm 728.0 W/m2
09:38 74.7 °F /  23.7 °C 37.6 °F /  3.1 °C 30.14in /  1020.5hPa East 6.0mph /  9.7km/h 11.0mph /  17.7km/h 26% 0.00in /  0mm 738.0 W/m2
09:43 74.8 °F /  23.8 °C 37.6 °F /  3.1 °C 30.14in /  1020.5hPa ESE 6.0mph /  9.7km/h 11.0mph /  17.7km/h 26% 0.00in /  0mm 758.0 W/m2
09:49 74.8 °F /  23.8 °C 37.6 °F /  3.1 °C 30.14in /  1020.5hPa SSW 4.0mph /  6.4km/h 11.0mph /  17.7km/h 26% 0.00in /  0mm 773.0 W/m2
09:54 75.2 °F /  24 °C 37.9 °F /  3.3 °C 30.14in /  1020.5hPa ESE 6.0mph /  9.7km/h 13.0mph /  20.9km/h 26% 0.00in /  0mm 782.0 W/m2
09:59 75.6 °F /  24.2 °C 37.2 °F /  2.9 °C 30.15in /  1020.9hPa ESE 2.9mph /  4.7km/h 10.0mph /  16.1km/h 25% 0.00in /  0mm 802.0 W/m2
10:04 76.3 °F /  24.6 °C 37.9 °F /  3.3 °C 30.15in /  1020.9hPa NE 6.9mph /  11.1km/h 7.0mph /  11.3km/h 25% 0.00in /  0mm 810.0 W/m2
10:09 76.6 °F /  24.8 °C 37.2 °F /  2.9 °C 30.14in /  1020.5hPa SE 2.9mph /  4.7km/h 10.0mph /  16.1km/h 24% 0.00in /  0mm 830.0 W/m2
10:15 77.2 °F /  25.1 °C 36.5 °F /  2.5 °C 30.15in /  1020.9hPa NE 2.9mph /  4.7km/h 14.0mph /  22.5km/h 23% 0.00in /  0mm 846.0 W/m2
10:20 77.5 °F /  25.3 °C 35.8 °F /  2.1 °C 30.14in /  1020.5hPa North 6.9mph /  11.1km/h 12.0mph /  19.3km/h 22% 0.00in /  0mm 858.0 W/m2
10:25 77.7 °F /  25.4 °C 35.8 °F /  2.1 °C 30.14in /  1020.5hPa NE 12.1mph /  19.5km/h 12.1mph /  19.5km/h 22% 0.00in /  0mm 870.0 W/m2
10:30 78.1 °F /  25.6 °C 36.1 °F /  2.3 °C 30.14in /  1020.5hPa NE 4.0mph /  6.4km/h 12.0mph /  19.3km/h 22% 0.00in /  0mm 882.0 W/m2
10:36 78.3 °F /  25.7 °C 36.3 °F /  2.4 °C 30.14in /  1020.5hPa East 10.1mph /  16.3km/h 12.0mph /  19.3km/h 22% 0.00in /  0mm 891.0 W/m2
10:41 78.8 °F /  26 °C 35.6 °F /  2 °C 30.14in /  1020.5hPa SSE 2.9mph /  4.7km/h 12.0mph /  19.3km/h 21% 0.00in /  0mm 904.0 W/m2
10:46 79.3 °F /  26.3 °C 34.7 °F /  1.5 °C 30.14in /  1020.5hPa ENE 6.0mph /  9.7km/h 14.0mph /  22.5km/h 20% 0.00in /  0mm 919.0 W/m2
10:51 79.7 °F /  26.5 °C 35.1 °F /  1.7 °C 30.14in /  1020.5hPa ENE 4.9mph /  7.9km/h 7.0mph /  11.3km/h 20% 0.00in /  0mm 928.0 W/m2
10:57 79.7 °F /  26.5 °C 33.8 °F /  1 °C 30.13in /  1020.2hPa NE 8.9mph /  14.3km/h 10.0mph /  16.1km/h 19% 0.00in /  0mm 942.0 W/m2
11:02 79.9 °F /  26.6 °C 34.0 °F /  1.1 °C 30.13in /  1020.2hPa NE 8.9mph /  14.3km/h 13.0mph /  20.9km/h 19% 0.00in /  0mm 951.0 W/m2
11:07 80.4 °F /  26.9 °C 34.3 °F /  1.3 °C 30.13in /  1020.2hPa NNE 4.0mph /  6.4km/h 10.0mph /  16.1km/h 19% 0.00in /  0mm 958.0 W/m2
11:12 81.0 °F /  27.2 °C 33.4 °F /  0.8 °C 30.13in /  1020.2hPa SE 4.9mph /  7.9km/h 13.0mph /  20.9km/h 18% 0.00in /  0mm 965.0 W/m2
11:17 81.1 °F /  27.3 °C 32.2 °F /  0.1 °C 30.13in /  1020.2hPa NE 2.0mph /  3.2km/h 8.0mph /  12.9km/h 17% 0.00in /  0mm 972.0 W/m2
11:22 81.3 °F /  27.4 °C 30.9 °F /  -0.6 °C 30.12in /  1019.9hPa ENE 2.0mph /  3.2km/h 9.0mph /  14.5km/h 16% 0.00in /  0mm 981.0 W/m2
11:27 81.9 °F /  27.7 °C 29.7 °F /  -1.3 °C 30.12in /  1019.9hPa ENE 4.9mph /  7.9km/h 9.0mph /  14.5km/h 15% 0.00in /  0mm 990.0 W/m2
11:33 82.2 °F /  27.9 °C 28.2 °F /  -2.1 °C 30.12in /  1019.9hPa NE 0.9mph /  1.4km/h 7.0mph /  11.3km/h 14% 0.00in /  0mm 997.0 W/m2
11:38 82.2 °F /  27.9 °C 28.2 °F /  -2.1 °C 30.12in /  1019.9hPa Calm   7.0mph /  11.3km/h 14% 0.00in /  0mm 998.0 W/m2
11:43 82.6 °F /  28.1 °C 30.2 °F /  -1 °C 30.12in /  1019.9hPa NNE 0.9mph /  1.4km/h 4.0mph /  6.4km/h 15% 0.00in /  0mm 1009.0 W/m2
11:48 83.1 °F /  28.4 °C 25.3 °F /  -3.7 °C 30.12in /  1019.9hPa NNE 2.0mph /  3.2km/h 5.0mph /  8km/h 12% 0.00in /  0mm 1007.0 W/m2
11:53 83.5 °F /  28.6 °C 27.5 °F /  -2.5 °C 30.12in /  1019.9hPa ENE 2.0mph /  3.2km/h 10.0mph /  16.1km/h 13% 0.00in /  0mm 1013.0 W/m2
11:58 82.9 °F /  28.3 °C 27.0 °F /  -2.8 °C 30.12in /  1019.9hPa ESE 2.9mph /  4.7km/h 6.0mph /  9.7km/h 13% 0.00in /  0mm 1016.0 W/m2
12:03 83.3 °F /  28.5 °C 27.3 °F /  -2.6 °C 30.12in /  1019.9hPa SE 8.1mph /  13km/h 11.0mph /  17.7km/h 13% 0.00in /  0mm 1018.0 W/m2
12:08 83.5 °F /  28.6 °C 25.5 °F /  -3.6 °C 30.12in /  1019.9hPa WSW 2.0mph /  3.2km/h 8.0mph /  12.9km/h 12% 0.00in /  0mm 1021.0 W/m2
12:13 82.9 °F /  28.3 °C 27.0 °F /  -2.8 °C 30.12in /  1019.9hPa East 4.0mph /  6.4km/h 11.0mph /  17.7km/h 13% 0.00in /  0mm 1021.0 W/m2
12:18 83.5 °F /  28.6 °C 27.5 °F /  -2.5 °C 30.12in /  1019.9hPa NNE 4.0mph /  6.4km/h 5.0mph /  8km/h 13% 0.00in /  0mm 1025.0 W/m2
12:24 83.7 °F /  28.7 °C 27.7 °F /  -2.4 °C 30.12in /  1019.9hPa SSE 0.9mph /  1.4km/h 3.0mph /  4.8km/h 13% 0.00in /  0mm 1025.0 W/m2
12:29 83.7 °F /  28.7 °C 27.7 °F /  -2.4 °C 30.11in /  1019.5hPa ESE 4.0mph /  6.4km/h 9.0mph /  14.5km/h 13% 0.00in /  0mm 1027.0 W/m2
12:34 84.2 °F /  29 °C 26.1 °F /  -3.3 °C 30.11in /  1019.5hPa East 0.9mph /  1.4km/h 7.0mph /  11.3km/h 12% 0.00in /  0mm 1027.0 W/m2
12:40 84.4 °F /  29.1 °C 26.2 °F /  -3.2 °C 30.11in /  1019.5hPa NE 2.9mph /  4.7km/h 8.0mph /  12.9km/h 12% 0.00in /  0mm 1025.0 W/m2
12:45 84.4 °F /  29.1 °C 26.2 °F /  -3.2 °C 30.11in /  1019.5hPa Calm   1.0mph /  1.6km/h 12% 0.00in /  0mm 1023.0 W/m2
12:50 85.3 °F /  29.6 °C 24.8 °F /  -4 °C 30.11in /  1019.5hPa North 2.9mph /  4.7km/h 8.0mph /  12.9km/h 11% 0.00in /  0mm 1021.0 W/m2
12:55 85.8 °F /  29.9 °C 23.0 °F /  -5 °C 30.11in /  1019.5hPa NW 0.9mph /  1.4km/h 4.0mph /  6.4km/h 10% 0.00in /  0mm 1023.0 W/m2
13:00 86.4 °F /  30.2 °C 25.7 °F /  -3.5 °C 30.11in /  1019.5hPa WNW 2.0mph /  3.2km/h 4.0mph /  6.4km/h 11% 0.00in /  0mm 1007.0 W/m2
13:05 86.5 °F /  30.3 °C 23.5 °F /  -4.7 °C 30.10in /  1019.2hPa Calm   1.0mph /  1.6km/h 10% 0.00in /  0mm 1016.0 W/m2
13:10 86.4 °F /  30.2 °C 23.4 °F /  -4.8 °C 30.10in /  1019.2hPa SW 4.0mph /  6.4km/h 4.0mph /  6.4km/h 10% 0.00in /  0mm 1011.0 W/m2
13:16 86.5 °F /  30.3 °C 25.9 °F /  -3.4 °C 30.10in /  1019.2hPa East 4.9mph /  7.9km/h 6.0mph /  9.7km/h 11% 0.00in /  0mm 998.0 W/m2
13:21 87.1 °F /  30.6 °C 26.2 °F /  -3.2 °C 30.10in /  1019.2hPa WNW 2.9mph /  4.7km/h 8.0mph /  12.9km/h 11% 0.00in /  0mm 1005.0 W/m2
13:26 87.8 °F /  31 °C 24.4 °F /  -4.2 °C 30.09in /  1018.8hPa Calm   5.0mph /  8km/h 10% 0.00in /  0mm 993.0 W/m2
13:31 88.2 °F /  31.2 °C 24.8 °F /  -4 °C 30.09in /  1018.8hPa ENE 0.9mph /  1.4km/h 9.0mph /  14.5km/h 10% 0.00in /  0mm 991.0 W/m2
13:36 87.4 °F /  30.8 °C 24.3 °F /  -4.3 °C 30.09in /  1018.8hPa SE 0.9mph /  1.4km/h 5.0mph /  8km/h 10% 0.00in /  0mm 983.0 W/m2
13:41 87.3 °F /  30.7 °C 26.4 °F /  -3.1 °C 30.09in /  1018.8hPa West 2.9mph /  4.7km/h 7.0mph /  11.3km/h 11% 0.00in /  0mm 976.0 W/m2
13:46 87.3 °F /  30.7 °C 24.1 °F /  -4.4 °C 30.09in /  1018.8hPa NW 4.9mph /  7.9km/h 5.0mph /  8km/h 10% 0.00in /  0mm 970.0 W/m2
13:51 87.3 °F /  30.7 °C 24.1 °F /  -4.4 °C 30.08in /  1018.5hPa SW 0.9mph /  1.4km/h 4.0mph /  6.4km/h 10% 0.00in /  0mm 967.0 W/m2
13:56 87.1 °F /  30.6 °C 23.9 °F /  -4.5 °C 30.08in /  1018.5hPa North 4.0mph /  6.4km/h 13.0mph /  20.9km/h 10% 0.00in /  0mm 972.0 W/m2
14:01 87.6 °F /  30.9 °C 24.3 °F /  -4.3 °C 30.08in /  1018.5hPa West 6.0mph /  9.7km/h 7.0mph /  11.3km/h 10% 0.00in /  0mm 972.0 W/m2
14:07 87.8 °F /  31 °C 21.9 °F /  -5.6 °C 30.07in /  1018.2hPa WSW 11.0mph /  17.7km/h 11.0mph /  17.7km/h 9% 0.00in /  0mm 977.0 W/m2
14:12 88.2 °F /  31.2 °C 24.8 °F /  -4 °C 30.07in /  1018.2hPa NW 2.0mph /  3.2km/h 5.0mph /  8km/h 10% 0.00in /  0mm 979.0 W/m2
14:17 88.0 °F /  31.1 °C 22.1 °F /  -5.5 °C 30.06in /  1017.8hPa SW 6.9mph /  11.1km/h 10.0mph /  16.1km/h 9% 0.00in /  0mm 979.0 W/m2
14:22 87.8 °F /  31 °C 24.4 °F /  -4.2 °C 30.07in /  1018.2hPa WNW 0.9mph /  1.4km/h 4.0mph /  6.4km/h 10% 0.00in /  0mm 977.0 W/m2
14:27 88.3 °F /  31.3 °C 19.6 °F /  -6.9 °C 30.06in /  1017.8hPa NNW 10.1mph /  16.3km/h 13.0mph /  20.9km/h 8% 0.00in /  0mm 932.0 W/m2
14:32 88.9 °F /  31.6 °C 16.9 °F /  -8.4 °C 30.06in /  1017.8hPa NW 0.9mph /  1.4km/h 8.0mph /  12.9km/h 7% 0.00in /  0mm 912.0 W/m2
14:37 89.4 °F /  31.9 °C 17.2 °F /  -8.2 °C 30.06in /  1017.8hPa West 8.9mph /  14.3km/h 17.0mph /  27.4km/h 7% 0.00in /  0mm 895.0 W/m2
14:42 89.8 °F /  32.1 °C 17.6 °F /  -8 °C 30.06in /  1017.8hPa Calm   9.0mph /  14.5km/h 7% 0.00in /  0mm 872.0 W/m2
14:47 90.0 °F /  32.2 °C 14.2 °F /  -9.9 °C 30.06in /  1017.8hPa NNW 2.0mph /  3.2km/h 11.0mph /  17.7km/h 6% 0.00in /  0mm 860.0 W/m2
14:53 90.1 °F /  32.3 °C 14.2 °F /  -9.9 °C 30.06in /  1017.8hPa NW 2.9mph /  4.7km/h 8.0mph /  12.9km/h 6% 0.00in /  0mm 838.0 W/m2
14:58 90.7 °F /  32.6 °C 14.7 °F /  -9.6 °C 30.06in /  1017.8hPa NW 0.9mph /  1.4km/h 5.0mph /  8km/h 6% 0.00in /  0mm 830.0 W/m2
15:03 90.9 °F /  32.7 °C 14.7 °F /  -9.6 °C 30.05in /  1017.5hPa NNW 4.0mph /  6.4km/h 10.0mph /  16.1km/h 6% 0.00in /  0mm 812.0 W/m2
15:08 90.9 °F /  32.7 °C 10.6 °F /  -11.9 °C 30.05in /  1017.5hPa West 2.9mph /  4.7km/h 12.0mph /  19.3km/h 5% 0.00in /  0mm 798.0 W/m2
15:13 90.5 °F /  32.5 °C 14.5 °F /  -9.7 °C 30.05in /  1017.5hPa NNW 4.0mph /  6.4km/h 10.0mph /  16.1km/h 6% 0.00in /  0mm 786.0 W/m2
15:18 90.3 °F /  32.4 °C 14.4 °F /  -9.8 °C 30.05in /  1017.5hPa ENE 2.9mph /  4.7km/h 11.0mph /  17.7km/h 6% 0.00in /  0mm 766.0 W/m2
15:23 90.3 °F /  32.4 °C 14.4 °F /  -9.8 °C 30.05in /  1017.5hPa WNW 2.9mph /  4.7km/h 3.0mph /  4.8km/h 6% 0.00in /  0mm 754.0 W/m2
15:28 90.5 °F /  32.5 °C 14.5 °F /  -9.7 °C 30.05in /  1017.5hPa West 6.0mph /  9.7km/h 8.0mph /  12.9km/h 6% 0.00in /  0mm 738.0 W/m2
15:33 90.3 °F /  32.4 °C 14.4 °F /  -9.8 °C 30.05in /  1017.5hPa Calm   5.0mph /  8km/h 6% 0.00in /  0mm 715.0 W/m2
15:39 90.7 °F /  32.6 °C 14.7 °F /  -9.6 °C 30.05in /  1017.5hPa WSW 2.0mph /  3.2km/h 9.0mph /  14.5km/h 6% 0.00in /  0mm 703.0 W/m2
15:44 90.1 °F /  32.3 °C 14.2 °F /  -9.9 °C 30.04in /  1017.2hPa NNW 4.0mph /  6.4km/h 16.0mph /  25.7km/h 6% 0.00in /  0mm 686.0 W/m2
15:49 90.0 °F /  32.2 °C 14.2 °F /  -9.9 °C 30.05in /  1017.5hPa NNW 4.9mph /  7.9km/h 7.0mph /  11.3km/h 6% 0.00in /  0mm 673.0 W/m2
15:54 90.0 °F /  32.2 °C 14.2 °F /  -9.9 °C 30.04in /  1017.2hPa North 2.0mph /  3.2km/h 5.0mph /  8km/h 6% 0.00in /  0mm 657.0 W/m2
15:59 90.0 °F /  32.2 °C 14.2 °F /  -9.9 °C 30.04in /  1017.2hPa West 2.0mph /  3.2km/h 8.0mph /  12.9km/h 6% 0.00in /  0mm 638.0 W/m2
16:04 89.8 °F /  32.1 °C 14.0 °F /  -10 °C 30.05in /  1017.5hPa NNW 2.9mph /  4.7km/h 11.0mph /  17.7km/h 6% 0.00in /  0mm 621.0 W/m2
16:09 90.0 °F /  32.2 °C 14.2 °F /  -9.9 °C 30.05in /  1017.5hPa NNW 4.9mph /  7.9km/h 13.0mph /  20.9km/h 6% 0.00in /  0mm 608.0 W/m2
16:14 89.6 °F /  32 °C 13.8 °F /  -10.1 °C 30.04in /  1017.2hPa WNW 4.0mph /  6.4km/h 13.0mph /  20.9km/h 6% 0.00in /  0mm 72.0 W/m2
16:19 88.9 °F /  31.6 °C 16.9 °F /  -8.4 °C 30.05in /  1017.5hPa NW 4.0mph /  6.4km/h 4.0mph /  6.4km/h 7% 0.00in /  0mm 221.0 W/m2
16:25 88.2 °F /  31.2 °C 12.9 °F /  -10.6 °C 30.05in /  1017.5hPa NW 2.9mph /  4.7km/h 4.0mph /  6.4km/h 6% 0.00in /  0mm 65.0 W/m2
16:30 87.8 °F /  31 °C 12.6 °F /  -10.8 °C 30.05in /  1017.5hPa NNW 6.0mph /  9.7km/h 7.0mph /  11.3km/h 6% 0.00in /  0mm 540.0 W/m2
16:35 88.2 °F /  31.2 °C 16.3 °F /  -8.7 °C 30.04in /  1017.2hPa NW 0.9mph /  1.4km/h 4.0mph /  6.4km/h 7% 0.00in /  0mm 519.0 W/m2
16:40 88.7 °F /  31.5 °C 13.3 °F /  -10.4 °C 30.04in /  1017.2hPa Calm   6.0mph /  9.7km/h 6% 0.00in /  0mm 501.0 W/m2
16:45 89.2 °F /  31.8 °C 13.6 °F /  -10.2 °C 30.04in /  1017.2hPa NW 4.0mph /  6.4km/h 4.0mph /  6.4km/h 6% 0.00in /  0mm 476.0 W/m2
16:50 90.0 °F /  32.2 °C 14.2 °F /  -9.9 °C 30.04in /  1017.2hPa Calm   4.0mph /  6.4km/h 6% 0.00in /  0mm 457.0 W/m2
16:55 90.1 °F /  32.3 °C 14.2 °F /  -9.9 °C 30.05in /  1017.5hPa Calm   6.0mph /  9.7km/h 6% 0.00in /  0mm 441.0 W/m2
17:00 90.1 °F /  32.3 °C 14.2 °F /  -9.9 °C 30.05in /  1017.5hPa Calm   3.0mph /  4.8km/h 6% 0.00in /  0mm 420.0 W/m2
17:05 90.1 °F /  32.3 °C 14.2 °F /  -9.9 °C 30.05in /  1017.5hPa NNW 2.0mph /  3.2km/h 6.0mph /  9.7km/h 6% 0.00in /  0mm 403.0 W/m2
17:11 90.1 °F /  32.3 °C 14.2 °F /  -9.9 °C 30.05in /  1017.5hPa NW 2.9mph /  4.7km/h 4.0mph /  6.4km/h 6% 0.00in /  0mm 380.0 W/m2
17:16 90.5 °F /  32.5 °C 14.5 °F /  -9.7 °C 30.05in /  1017.5hPa WSW 8.1mph /  13km/h 8.1mph /  13km/h 6% 0.00in /  0mm 355.0 W/m2
17:21 90.0 °F /  32.2 °C 14.2 °F /  -9.9 °C 30.05in /  1017.5hPa NNW 4.0mph /  6.4km/h 6.0mph /  9.7km/h 6% 0.00in /  0mm 332.0 W/m2
17:26 89.4 °F /  31.9 °C 13.8 °F /  -10.1 °C 30.05in /  1017.5hPa WNW 4.9mph /  7.9km/h 7.0mph /  11.3km/h 6% 0.00in /  0mm 309.0 W/m2
17:31 89.8 °F /  32.1 °C 14.0 °F /  -10 °C 30.05in /  1017.5hPa Calm   3.0mph /  4.8km/h 6% 0.00in /  0mm 292.0 W/m2
17:36 90.0 °F /  32.2 °C 14.2 °F /  -9.9 °C 30.05in /  1017.5hPa West 6.9mph /  11.1km/h 7.0mph /  11.3km/h 6% 0.00in /  0mm 269.0 W/m2
17:41 90.0 °F /  32.2 °C 14.2 °F /  -9.9 °C 30.05in /  1017.5hPa North 4.9mph /  7.9km/h 8.0mph /  12.9km/h 6% 0.00in /  0mm 251.0 W/m2
17:46 89.8 °F /  32.1 °C 14.0 °F /  -10 °C 30.06in /  1017.8hPa WNW 4.0mph /  6.4km/h 4.0mph /  6.4km/h 6% 0.00in /  0mm 230.0 W/m2
17:51 89.2 °F /  31.8 °C 9.5 °F /  -12.5 °C 30.06in /  1017.8hPa North 4.0mph /  6.4km/h 8.0mph /  12.9km/h 5% 0.00in /  0mm 213.0 W/m2
17:59 89.1 °F /  31.7 °C 13.5 °F /  -10.3 °C 30.06in /  1017.8hPa NW 2.0mph /  3.2km/h 3.0mph /  4.8km/h 6% 0.00in /  0mm 186.0 W/m2
18:04 88.9 °F /  31.6 °C 13.3 °F /  -10.4 °C 30.06in /  1017.8hPa Calm   3.0mph /  4.8km/h 6% 0.00in /  0mm 167.0 W/m2
18:09 88.9 °F /  31.6 °C 9.3 °F /  -12.6 °C 30.06in /  1017.8hPa WNW 2.0mph /  3.2km/h 4.0mph /  6.4km/h 5% 0.00in /  0mm 144.0 W/m2
18:14 88.5 °F /  31.4 °C 9.0 °F /  -12.8 °C 30.06in /  1017.8hPa Calm   2.0mph /  3.2km/h 5% 0.00in /  0mm 121.0 W/m2
18:19 88.5 °F /  31.4 °C 9.0 °F /  -12.8 °C 30.07in /  1018.2hPa Calm   1.0mph /  1.6km/h 5% 0.00in /  0mm 98.0 W/m2
18:24 88.2 °F /  31.2 °C 8.8 °F /  -12.9 °C 30.07in /  1018.2hPa WSW 0.9mph /  1.4km/h 5.0mph /  8km/h 5% 0.00in /  0mm 77.0 W/m2
18:29 87.8 °F /  31 °C 8.4 °F /  -13.1 °C 30.07in /  1018.2hPa WSW 2.0mph /  3.2km/h 4.0mph /  6.4km/h 5% 0.00in /  0mm 60.0 W/m2
18:34 87.3 °F /  30.7 °C 12.2 °F /  -11 °C 30.08in /  1018.5hPa Calm   4.0mph /  6.4km/h 6% 0.00in /  0mm 44.0 W/m2
18:42 86.4 °F /  30.2 °C 11.5 °F /  -11.4 °C 30.08in /  1018.5hPa West 2.0mph /  3.2km/h 7.0mph /  11.3km/h 6% 0.00in /  0mm 26.0 W/m2
18:47 84.9 °F /  29.4 °C 19.8 °F /  -6.8 °C 30.09in /  1018.8hPa Calm   4.0mph /  6.4km/h 9% 0.00in /  0mm 14.0 W/m2
18:52 83.7 °F /  28.7 °C 21.4 °F /  -5.9 °C 30.09in /  1018.8hPa SE 8.9mph /  14.3km/h 9.0mph /  14.5km/h 10% 0.00in /  0mm 9.0 W/m2
18:58 82.6 °F /  28.1 °C 20.5 °F /  -6.4 °C 30.09in /  1018.8hPa SSW 4.0mph /  6.4km/h 7.0mph /  11.3km/h 10% 0.00in /  0mm 5.0 W/m2
19:09 81.0 °F /  27.2 °C 21.6 °F /  -5.8 °C 30.09in /  1018.8hPa SSE 4.9mph /  7.9km/h 8.0mph /  12.9km/h 11% 0.00in /  0mm 0.0 W/m2
19:14 80.2 °F /  26.8 °C 21.0 °F /  -6.1 °C 30.09in /  1018.8hPa SE 4.9mph /  7.9km/h 5.0mph /  8km/h 11% 0.00in /  0mm 0.0 W/m2
19:19 79.9 °F /  26.6 °C 22.8 °F /  -5.1 °C 30.09in /  1018.8hPa Calm   6.0mph /  9.7km/h 12% 0.00in /  0mm 0.0 W/m2
19:24 79.3 °F /  26.3 °C 22.3 °F /  -5.4 °C 30.10in /  1019.2hPa SSE 0.9mph /  1.4km/h 9.0mph /  14.5km/h 12% 0.00in /  0mm 0.0 W/m2
19:29 79.0 °F /  26.1 °C 22.1 °F /  -5.5 °C 30.10in /  1019.2hPa East 0.9mph /  1.4km/h 5.0mph /  8km/h 12% 0.00in /  0mm 0.0 W/m2
19:34 78.6 °F /  25.9 °C 21.7 °F /  -5.7 °C 30.10in /  1019.2hPa West 6.9mph /  11.1km/h 7.0mph /  11.3km/h 12% 0.00in /  0mm 0.0 W/m2
19:40 78.3 °F /  25.7 °C 21.6 °F /  -5.8 °C 30.11in /  1019.5hPa SE 6.9mph /  11.1km/h 7.0mph /  11.3km/h 12% 0.00in /  0mm 0.0 W/m2
19:45 77.9 °F /  25.5 °C 21.2 °F /  -6 °C 30.11in /  1019.5hPa SSE 6.0mph /  9.7km/h 7.0mph /  11.3km/h 12% 0.00in /  0mm 0.0 W/m2
19:50 77.5 °F /  25.3 °C 20.8 °F /  -6.2 °C 30.11in /  1019.5hPa Calm   11.0mph /  17.7km/h 12% 0.00in /  0mm 0.0 W/m2
19:55 77.4 °F /  25.2 °C 22.6 °F /  -5.2 °C 30.11in /  1019.5hPa SE 0.9mph /  1.4km/h 8.0mph /  12.9km/h 13% 0.00in /  0mm 0.0 W/m2
20:00 77.2 °F /  25.1 °C 22.5 °F /  -5.3 °C 30.11in /  1019.5hPa SW 2.9mph /  4.7km/h 6.0mph /  9.7km/h 13% 0.00in /  0mm 0.0 W/m2
20:05 76.8 °F /  24.9 °C 22.3 °F /  -5.4 °C 30.11in /  1019.5hPa SE 10.1mph /  16.3km/h 14.0mph /  22.5km/h 13% 0.00in /  0mm 0.0 W/m2
20:10 76.6 °F /  24.8 °C 22.1 °F /  -5.5 °C 30.11in /  1019.5hPa SW 4.0mph /  6.4km/h 8.0mph /  12.9km/h 13% 0.00in /  0mm 0.0 W/m2
20:15 76.5 °F /  24.7 °C 21.9 °F /  -5.6 °C 30.12in /  1019.9hPa SSE 2.9mph /  4.7km/h 7.0mph /  11.3km/h 13% 0.00in /  0mm 0.0 W/m2
20:20 76.3 °F /  24.6 °C 21.7 °F /  -5.7 °C 30.12in /  1019.9hPa SE 4.9mph /  7.9km/h 17.0mph /  27.4km/h 13% 0.00in /  0mm 0.0 W/m2
20:25 75.9 °F /  24.4 °C 21.6 °F /  -5.8 °C 30.12in /  1019.9hPa Calm   3.0mph /  4.8km/h 13% 0.00in /  0mm 0.0 W/m2
20:31 75.7 °F /  24.3 °C 21.4 °F /  -5.9 °C 30.12in /  1019.9hPa Calm   7.0mph /  11.3km/h 13% 0.00in /  0mm 0.0 W/m2
20:36 75.4 °F /  24.1 °C 21.2 °F /  -6 °C 30.13in /  1020.2hPa SSW 4.0mph /  6.4km/h 9.0mph /  14.5km/h 13% 0.00in /  0mm 0.0 W/m2
20:42 75.0 °F /  23.9 °C 20.8 °F /  -6.2 °C 30.13in /  1020.2hPa SSE 2.0mph /  3.2km/h 7.0mph /  11.3km/h 13% 0.00in /  0mm 0.0 W/m2
20:48 74.8 °F /  23.8 °C 22.5 °F /  -5.3 °C 30.13in /  1020.2hPa SE 2.0mph /  3.2km/h 8.0mph /  12.9km/h 14% 0.00in /  0mm 0.0 W/m2
20:53 74.7 °F /  23.7 °C 22.3 °F /  -5.4 °C 30.12in /  1019.9hPa Calm   2.0mph /  3.2km/h 14% 0.00in /  0mm 0.0 W/m2
20:58 74.5 °F /  23.6 °C 22.1 °F /  -5.5 °C 30.13in /  1020.2hPa SE 4.0mph /  6.4km/h 7.0mph /  11.3km/h 14% 0.00in /  0mm 0.0 W/m2
21:04 74.5 °F /  23.6 °C 22.1 °F /  -5.5 °C 30.13in /  1020.2hPa South 6.9mph /  11.1km/h 11.0mph /  17.7km/h 14% 0.00in /  0mm 0.0 W/m2
21:09 74.5 °F /  23.6 °C 22.1 °F /  -5.5 °C 30.13in /  1020.2hPa SE 0.9mph /  1.4km/h 12.0mph /  19.3km/h 14% 0.00in /  0mm 0.0 W/m2
21:14 74.3 °F /  23.5 °C 22.1 °F /  -5.5 °C 30.14in /  1020.5hPa Calm   7.0mph /  11.3km/h 14% 0.00in /  0mm 0.0 W/m2
21:19 74.1 °F /  23.4 °C 21.9 °F /  -5.6 °C 30.14in /  1020.5hPa Calm   4.0mph /  6.4km/h 14% 0.00in /  0mm 0.0 W/m2
21:24 73.8 °F /  23.2 °C 21.6 °F /  -5.8 °C 30.14in /  1020.5hPa SSE 8.1mph /  13km/h 10.0mph /  16.1km/h 14% 0.00in /  0mm 0.0 W/m2
21:29 73.8 °F /  23.2 °C 23.2 °F /  -4.9 °C 30.14in /  1020.5hPa SE 2.9mph /  4.7km/h 11.0mph /  17.7km/h 15% 0.00in /  0mm 0.0 W/m2
21:34 73.8 °F /  23.2 °C 23.2 °F /  -4.9 °C 30.14in /  1020.5hPa Calm   2.0mph /  3.2km/h 15% 0.00in /  0mm 0.0 W/m2
21:40 73.6 °F /  23.1 °C 23.0 °F /  -5 °C 30.14in /  1020.5hPa Calm   2.0mph /  3.2km/h 15% 0.00in /  0mm 0.0 W/m2
21:45 73.2 °F /  22.9 °C 22.8 °F /  -5.1 °C 30.15in /  1020.9hPa Calm   2.0mph /  3.2km/h 15% 0.00in /  0mm 0.0 W/m2
21:51 73.0 °F /  22.8 °C 22.6 °F /  -5.2 °C 30.15in /  1020.9hPa Calm   6.0mph /  9.7km/h 15% 0.00in /  0mm 0.0 W/m2
21:56 72.9 °F /  22.7 °C 22.5 °F /  -5.3 °C 30.15in /  1020.9hPa Calm   1.0mph /  1.6km/h 15% 0.00in /  0mm 0.0 W/m2
22:02 72.7 °F /  22.6 °C 22.3 °F /  -5.4 °C 30.15in /  1020.9hPa South 4.0mph /  6.4km/h 7.0mph /  11.3km/h 15% 0.00in /  0mm 0.0 W/m2
22:07 72.7 °F /  22.6 °C 22.3 °F /  -5.4 °C 30.15in /  1020.9hPa SE 0.9mph /  1.4km/h 1.0mph /  1.6km/h 15% 0.00in /  0mm 0.0 W/m2
22:12 72.7 °F /  22.6 °C 22.3 °F /  -5.4 °C 30.15in /  1020.9hPa SSE 2.9mph /  4.7km/h 5.0mph /  8km/h 15% 0.00in /  0mm 0.0 W/m2
22:18 72.5 °F /  22.5 °C 23.7 °F /  -4.6 °C 30.15in /  1020.9hPa Calm   4.0mph /  6.4km/h 16% 0.00in /  0mm 0.0 W/m2
22:23 72.5 °F /  22.5 °C 23.7 °F /  -4.6 °C 30.15in /  1020.9hPa SE 4.0mph /  6.4km/h 6.0mph /  9.7km/h 16% 0.00in /  0mm 0.0 W/m2
22:28 72.5 °F /  22.5 °C 23.7 °F /  -4.6 °C 30.15in /  1020.9hPa SSE 4.0mph /  6.4km/h 4.0mph /  6.4km/h 16% 0.00in /  0mm 0.0 W/m2
22:33 72.3 °F /  22.4 °C 23.5 °F /  -4.7 °C 30.15in /  1020.9hPa South 6.0mph /  9.7km/h 8.0mph /  12.9km/h 16% 0.00in /  0mm 0.0 W/m2
22:38 72.3 °F /  22.4 °C 23.5 °F /  -4.7 °C 30.15in /  1020.9hPa Calm   5.0mph /  8km/h 16% 0.00in /  0mm 0.0 W/m2
22:44 72.3 °F /  22.4 °C 23.5 °F /  -4.7 °C 30.15in /  1020.9hPa SE 2.0mph /  3.2km/h 10.0mph /  16.1km/h 16% 0.00in /  0mm 0.0 W/m2
22:50 72.3 °F /  22.4 °C 23.5 °F /  -4.7 °C 30.15in /  1020.9hPa South 2.0mph /  3.2km/h 9.0mph /  14.5km/h 16% 0.00in /  0mm 0.0 W/m2
22:55 72.1 °F /  22.3 °C 23.5 °F /  -4.7 °C 30.15in /  1020.9hPa Calm   4.0mph /  6.4km/h 16% 0.00in /  0mm 0.0 W/m2
23:00 72.0 °F /  22.2 °C 23.4 °F /  -4.8 °C 30.15in /  1020.9hPa SE 4.9mph /  7.9km/h 7.0mph /  11.3km/h 16% 0.00in /  0mm 0.0 W/m2
23:05 72.0 °F /  22.2 °C 23.4 °F /  -4.8 °C 30.15in /  1020.9hPa South 0.9mph /  1.4km/h 5.0mph /  8km/h 16% 0.00in /  0mm 0.0 W/m2
23:10 72.0 °F /  22.2 °C 23.4 °F /  -4.8 °C 30.15in /  1020.9hPa Calm   9.0mph /  14.5km/h 16% 0.00in /  0mm 0.0 W/m2
23:16 71.8 °F /  22.1 °C 23.2 °F /  -4.9 °C 30.15in /  1020.9hPa Calm   4.0mph /  6.4km/h 16% 0.00in /  0mm 0.0 W/m2
23:21 71.6 °F /  22 °C 24.4 °F /  -4.2 °C 30.15in /  1020.9hPa ENE 4.9mph /  7.9km/h 10.0mph /  16.1km/h 17% 0.00in /  0mm 0.0 W/m2
23:26 71.6 °F /  22 °C 24.4 °F /  -4.2 °C 30.15in /  1020.9hPa SE 6.9mph /  11.1km/h 12.0mph /  19.3km/h 17% 0.00in /  0mm 0.0 W/m2
23:31 71.6 °F /  22 °C 24.4 °F /  -4.2 °C 30.15in /  1020.9hPa SE 0.9mph /  1.4km/h 9.0mph /  14.5km/h 17% 0.00in /  0mm 0.0 W/m2
23:36 71.4 °F /  21.9 °C 24.3 °F /  -4.3 °C 30.15in /  1020.9hPa SE 2.9mph /  4.7km/h 4.0mph /  6.4km/h 17% 0.00in /  0mm 0.0 W/m2
23:41 71.2 °F /  21.8 °C 24.3 °F /  -4.3 °C 30.15in /  1020.9hPa East 2.9mph /  4.7km/h 9.0mph /  14.5km/h 17% 0.00in /  0mm 0.0 W/m2
23:46 71.1 °F /  21.7 °C 24.1 °F /  -4.4 °C 30.15in /  1020.9hPa SE 6.0mph /  9.7km/h 9.0mph /  14.5km/h 17% 0.00in /  0mm 0.0 W/m2
23:51 71.1 °F /  21.7 °C 24.1 °F /  -4.4 °C 30.15in /  1020.9hPa Calm   4.0mph /  6.4km/h 17% 0.00in /  0mm 0.0 W/m2
23:56 70.9 °F /  21.6 °C 23.9 °F /  -4.5 °C 30.15in /  1020.9hPa Calm   9.0mph /  14.5km/h 17% 0.00in /  0mm 0.0 W/m2
Olympia, Windhoek, Namibia
Compliments of Weather Underground - 3.25 mb